Time;durP1;ratioP1;P1;durP2;ratioP2;P2;SDS_P1;SDS_P2;PMS_P1;PMS_P2;Temp;Humidity;BMP_temperature;BMP_pressure;BME280_temperature;BME280_humidity;BME280_pressure;Samples;Min_cycle;Max_cycle;Signal;HPM_P1;HPM_P2
2021/08/16 00:01:23;;;;;;;7.83;3.50;;;16.70;99.90;;;;;;5235413;28;20237;-62
2021/08/16 00:03:56;;;;;;;7.70;3.53;;;16.70;99.90;;;;;;5235638;28;20224;-62
2021/08/16 00:06:27;;;;;;;4.97;2.97;;;16.70;99.90;;;;;;5235299;28;20225;-62
2021/08/16 00:09:04;;;;;;;6.43;3.38;;;16.70;99.90;;;;;;5235384;28;20213;-63
2021/08/16 00:11:39;;;;;;;6.33;3.10;;;16.70;99.90;;;;;;5235105;28;20224;-63
2021/08/16 00:14:11;;;;;;;8.32;3.10;;;16.70;99.90;;;;;;5235082;28;20270;-61
2021/08/16 00:16:43;;;;;;;6.60;2.80;;;16.70;99.90;;;;;;5217364;28;20248;-61
2021/08/16 00:19:15;;;;;;;7.47;4.03;;;16.70;99.90;;;;;;5234194;28;20205;-62
2021/08/16 00:21:49;;;;;;;6.68;3.15;;;16.70;99.90;;;;;;5233690;28;20297;-61
2021/08/16 00:24:21;;;;;;;14.48;2.80;;;16.70;99.90;;;;;;5233889;28;20216;-62
2021/08/16 00:26:53;;;;;;;6.75;3.10;;;16.70;99.90;;;;;;5217670;28;20680;-61
2021/08/16 00:29:25;;;;;;;4.73;3.10;;;16.70;99.90;;;;;;5234995;28;20205;-62
2021/08/16 00:31:57;;;;;;;4.82;2.95;;;16.70;99.90;;;;;;5232292;28;20252;-63
2021/08/16 00:34:29;;;;;;;8.48;3.00;;;16.80;99.90;;;;;;5230805;28;20528;-62
2021/08/16 00:37:04;;;;;;;5.47;2.90;;;16.80;99.90;;;;;;5214271;28;20241;-65
2021/08/16 00:39:38;;;;;;;4.83;2.67;;;16.80;99.90;;;;;;5230781;28;20529;-64
2021/08/16 00:42:12;;;;;;;4.97;3.13;;;16.90;99.90;;;;;;5230840;28;20236;-61
2021/08/16 00:44:47;;;;;;;4.73;2.60;;;16.90;99.90;;;;;;5231709;28;20220;-62
2021/08/16 00:47:18;;;;;;;6.33;2.93;;;17.00;99.90;;;;;;5231854;28;20235;-65
2021/08/16 00:49:53;;;;;;;7.45;3.15;;;17.00;99.90;;;;;;5231618;28;20553;-62
2021/08/16 00:52:27;;;;;;;5.47;2.90;;;17.10;99.90;;;;;;5230566;28;20252;-60
2021/08/16 00:55:00;;;;;;;5.43;2.80;;;17.10;99.90;;;;;;5231191;28;20202;-61
2021/08/16 00:57:32;;;;;;;6.05;2.92;;;17.10;99.90;;;;;;5231118;28;20648;-64
2021/08/16 01:00:11;;;;;;;5.70;2.85;;;17.20;99.90;;;;;;5230245;28;20233;-68
2021/08/16 01:02:46;;;;;;;6.45;3.13;;;17.20;99.90;;;;;;5214047;28;20691;-63
2021/08/16 01:05:19;;;;;;;6.32;3.30;;;17.20;99.90;;;;;;5230943;28;20209;-60
2021/08/16 01:07:52;;;;;;;5.72;2.92;;;17.20;99.90;;;;;;5231501;28;20533;-62
2021/08/16 01:10:29;;;;;;;5.90;3.58;;;17.20;99.90;;;;;;5231266;28;20224;-62
2021/08/16 01:13:02;;;;;;;8.20;3.30;;;17.10;99.90;;;;;;5230701;28;20233;-61
2021/08/16 01:15:34;;;;;;;5.75;3.25;;;17.20;99.90;;;;;;5213571;28;20209;-61
2021/08/16 01:18:06;;;;;;;5.90;3.17;;;17.10;99.90;;;;;;5229630;28;20229;-62
2021/08/16 01:20:39;;;;;;;7.75;3.72;;;17.00;99.90;;;;;;5230739;28;20207;-61
2021/08/16 01:23:10;;;;;;;8.38;3.42;;;17.00;99.90;;;;;;5230835;28;20564;-61
2021/08/16 01:25:47;;;;;;;4.93;3.35;;;17.00;99.90;;;;;;5213356;28;20270;-61
2021/08/16 01:28:20;;;;;;;5.22;3.40;;;17.00;99.90;;;;;;5229371;28;20233;-61
2021/08/16 01:31:02;;;;;;;7.22;3.60;;;16.90;99.90;;;;;;5230518;28;20497;-61
2021/08/16 01:33:37;;;;;;;6.82;3.20;;;16.90;99.90;;;;;;5230572;28;20386;-61
2021/08/16 01:36:09;;;;;;;8.32;3.45;;;16.90;99.90;;;;;;5231211;28;20197;-63
2021/08/16 01:38:43;;;;;;;7.45;3.75;;;16.80;99.90;;;;;;5229478;28;20298;-66
2021/08/16 01:41:15;;;;;;;7.85;3.65;;;16.80;99.90;;;;;;5229610;28;20201;-58
2021/08/16 01:43:47;;;;;;;5.85;3.30;;;16.70;99.90;;;;;;5229637;28;20565;-61
2021/08/16 01:46:23;;;;;;;9.68;4.30;;;16.70;99.90;;;;;;5229996;28;20265;-59
2021/08/16 01:48:55;;;;;;;6.90;3.85;;;16.70;99.90;;;;;;5229507;28;20229;-63
2021/08/16 01:51:27;;;;;;;5.13;3.35;;;16.70;99.90;;;;;;5229375;28;20209;-62
2021/08/16 01:53:59;;;;;;;7.80;3.88;;;16.60;99.90;;;;;;5230360;28;20527;-62
2021/08/16 01:56:34;;;;;;;7.40;3.78;;;16.60;99.90;;;;;;5230503;28;20208;-61
2021/08/16 01:59:09;;;;;;;7.90;4.00;;;16.60;99.90;;;;;;5229544;28;20244;-60
2021/08/16 02:01:44;;;;;;;8.27;3.60;;;16.50;99.90;;;;;;5230282;28;20209;-60
2021/08/16 02:04:16;;;;;;;6.87;3.67;;;16.50;99.90;;;;;;5229798;28;20205;-61
2021/08/16 02:06:48;;;;;;;7.13;3.70;;;16.40;99.90;;;;;;5229674;28;20221;-59
2021/08/16 02:09:21;;;;;;;7.30;4.15;;;16.40;99.90;;;;;;5228982;28;20205;-60
2021/08/16 02:11:55;;;;;;;7.15;3.60;;;16.40;99.90;;;;;;5228521;28;20198;-61
2021/08/16 02:14:27;;;;;;;5.83;3.63;;;16.30;99.90;;;;;;5229868;28;20224;-61
2021/08/16 02:17:00;;;;;;;8.73;3.38;;;16.30;99.90;;;;;;5228668;28;20518;-63
2021/08/16 02:19:32;;;;;;;6.40;3.70;;;16.30;99.90;;;;;;5229551;28;20212;-64
2021/08/16 02:22:04;;;;;;;5.87;3.83;;;16.30;99.90;;;;;;5229669;28;20314;-62
2021/08/16 02:24:39;;;;;;;9.02;4.32;;;16.30;99.90;;;;;;5228399;28;20233;-64
2021/08/16 02:27:11;;;;;;;6.47;4.23;;;16.30;99.90;;;;;;5229706;28;20513;-62
2021/08/16 02:29:42;;;;;;;9.20;3.90;;;16.30;99.90;;;;;;5228411;28;20213;-61
2021/08/16 02:32:15;;;;;;;8.27;3.77;;;16.30;99.90;;;;;;5212062;28;20554;-59
2021/08/16 02:34:47;;;;;;;6.70;3.83;;;16.20;99.90;;;;;;5228853;28;20609;-61
2021/08/16 02:37:19;;;;;;;10.80;3.67;;;16.20;99.90;;;;;;5229447;28;20524;-61
2021/08/16 02:39:51;;;;;;;7.90;3.83;;;16.20;99.90;;;;;;5229480;28;20201;-61
2021/08/16 02:42:23;;;;;;;10.67;3.70;;;16.20;99.90;;;;;;5229602;28;20667;-61
2021/08/16 02:44:55;;;;;;;10.38;3.47;;;16.20;99.90;;;;;;5228731;28;20233;-62
2021/08/16 02:47:27;;;;;;;5.90;2.77;;;16.30;99.90;;;;;;5228494;28;20193;-62
2021/08/16 02:50:01;;;;;;;8.40;3.67;;;16.30;99.90;;;;;;5228238;28;20260;-61
2021/08/16 02:52:33;;;;;;;6.00;2.90;;;16.30;99.90;;;;;;5228184;28;20236;-60
2021/08/16 02:55:06;;;;;;;6.30;3.60;;;16.30;99.90;;;;;;5228168;28;20205;-60
2021/08/16 02:57:38;;;;;;;6.93;3.47;;;16.30;99.90;;;;;;5227683;28;20288;-68
2021/08/16 03:00:10;;;;;;;6.80;3.23;;;16.30;99.90;;;;;;5228991;28;20248;-61
2021/08/16 03:02:43;;;;;;;8.90;3.60;;;16.30;99.90;;;;;;5229236;28;20557;-61
2021/08/16 03:05:16;;;;;;;5.70;3.30;;;16.30;99.90;;;;;;5228885;28;20236;-64
2021/08/16 03:07:49;;;;;;;7.30;3.83;;;16.20;99.90;;;;;;5229229;28;20210;-62
2021/08/16 03:10:22;;;;;;;6.80;3.67;;;16.20;99.90;;;;;;5228886;28;20549;-61
2021/08/16 03:12:54;;;;;;;6.87;3.47;;;16.20;99.90;;;;;;5227656;28;20232;-62
2021/08/16 03:15:26;;;;;;;7.40;3.67;;;16.20;99.90;;;;;;5227718;28;20236;-62
2021/08/16 03:18:00;;;;;;;6.70;3.53;;;16.10;99.90;;;;;;5227940;28;20210;-60
2021/08/16 03:20:32;;;;;;;7.50;3.60;;;16.10;99.90;;;;;;5228862;28;20552;-62
2021/08/16 03:23:04;;;;;;;7.10;3.73;;;16.00;99.90;;;;;;5228648;28;20220;-61
2021/08/16 03:25:36;;;;;;;7.63;3.50;;;16.00;99.90;;;;;;5227713;28;20213;-61
2021/08/16 03:28:08;;;;;;;6.23;3.67;;;15.90;99.90;;;;;;5228522;28;20213;-62
2021/08/16 03:30:40;;;;;;;7.90;3.90;;;15.90;99.90;;;;;;5227982;28;20223;-61
2021/08/16 03:33:12;;;;;;;8.13;4.13;;;15.90;99.90;;;;;;5228736;28;20225;-61
2021/08/16 03:35:44;;;;;;;8.03;3.50;;;16.00;99.90;;;;;;5228762;28;20237;-62
2021/08/16 03:38:16;;;;;;;6.30;3.53;;;16.00;99.90;;;;;;5227891;28;20221;-60
2021/08/16 03:40:49;;;;;;;6.03;3.20;;;16.00;99.90;;;;;;5228731;28;20208;-60
2021/08/16 03:43:21;;;;;;;6.53;3.70;;;16.00;99.90;;;;;;5227483;28;20206;-64
2021/08/16 03:45:57;;;;;;;6.90;3.73;;;16.00;99.90;;;;;;5227490;28;20240;-63
2021/08/16 03:48:29;;;;;;;7.63;4.33;;;16.10;99.90;;;;;;5227601;28;20255;-61
2021/08/16 03:51:04;;;;;;;6.80;3.90;;;16.10;99.90;;;;;;5227677;28;20205;-62
2021/08/16 03:53:36;;;;;;;5.87;3.77;;;16.20;99.90;;;;;;5227786;28;20653;-63
2021/08/16 03:56:10;;;;;;;12.07;5.30;;;16.30;99.90;;;;;;5227319;28;20307;-62
2021/08/16 03:58:42;;;;;;;9.80;4.33;;;16.30;99.90;;;;;;5228442;28;20241;-61
2021/08/16 04:01:14;;;;;;;8.33;4.47;;;16.40;99.90;;;;;;5211030;28;20229;-62
2021/08/16 04:03:47;;;;;;;10.57;3.87;;;16.40;99.90;;;;;;5210669;28;20216;-62
2021/08/16 04:06:19;;;;;;;7.83;4.00;;;16.50;99.90;;;;;;5228349;28;20209;-62
2021/08/16 04:08:51;;;;;;;6.70;3.90;;;16.60;99.90;;;;;;5232223;28;20221;-60
2021/08/16 04:11:23;;;;;;;5.40;3.87;;;16.70;99.90;;;;;;5214768;28;20321;-61
2021/08/16 04:13:57;;;;;;;8.95;4.25;;;16.70;99.90;;;;;;5231876;28;20232;-62
2021/08/16 04:16:29;;;;;;;6.25;4.00;;;16.80;99.90;;;;;;5231213;28;20578;-64
2021/08/16 04:19:02;;;;;;;7.20;3.83;;;16.80;99.90;;;;;;5232121;28;20202;-61
2021/08/16 04:21:34;;;;;;;7.20;3.90;;;17.00;99.90;;;;;;5214656;28;20236;-61
2021/08/16 04:24:06;;;;;;;7.35;4.35;;;17.00;99.90;;;;;;5231862;28;20224;-61
2021/08/16 04:26:38;;;;;;;8.13;4.45;;;17.10;99.90;;;;;;5231792;28;20244;-63
2021/08/16 04:29:12;;;;;;;8.47;4.40;;;17.20;99.90;;;;;;5232031;28;20205;-61
2021/08/16 04:31:44;;;;;;;7.20;3.80;;;17.30;99.90;;;;;;5232556;28;20236;-64
2021/08/16 04:34:16;;;;;;;10.85;4.95;;;17.40;99.90;;;;;;5231740;28;20225;-61
2021/08/16 04:36:48;;;;;;;6.00;3.97;;;17.50;99.90;;;;;;5230996;28;20304;-61
2021/08/16 04:39:20;;;;;;;6.10;4.00;;;17.50;99.90;;;;;;5230537;28;20205;-62
2021/08/16 04:41:52;;;;;;;9.40;4.47;;;17.70;99.90;;;;;;5231709;28;20212;-62
2021/08/16 04:44:24;;;;;;;7.55;4.43;;;17.80;99.90;;;;;;5231381;28;20632;-67
2021/08/16 04:46:56;;;;;;;7.88;3.95;;;17.80;99.90;;;;;;5231240;28;20240;-62
2021/08/16 04:49:30;;;;;;;7.93;4.57;;;18.00;99.90;;;;;;5231737;28;20210;-60
2021/08/16 04:52:03;;;;;;;9.85;4.35;;;18.10;99.90;;;;;;5230324;28;20217;-61
2021/08/16 04:54:34;;;;;;;8.50;4.10;;;18.20;99.90;;;;;;5231810;28;20694;-62
2021/08/16 04:57:06;;;;;;;5.53;3.88;;;18.30;99.90;;;;;;5232139;28;20511;-61
2021/08/16 04:59:39;;;;;;;6.22;4.03;;;18.50;99.90;;;;;;5230093;28;20230;-61
2021/08/16 05:02:10;;;;;;;7.13;3.80;;;18.60;99.90;;;;;;5229993;28;20279;-62
2021/08/16 05:04:43;;;;;;;7.22;4.20;;;18.80;99.90;;;;;;5231326;28;20201;-63
2021/08/16 05:07:15;;;;;;;9.23;4.32;;;19.00;99.90;;;;;;5231501;28;20302;-63
2021/08/16 05:09:49;;;;;;;9.55;5.28;;;19.20;99.90;;;;;;5230156;28;20266;-65
2021/08/16 05:12:21;;;;;;;9.38;4.43;;;19.30;99.90;;;;;;5230437;28;20205;-63
2021/08/16 05:14:53;;;;;;;6.82;4.35;;;19.50;99.90;;;;;;5230404;28;20225;-63
2021/08/16 05:17:27;;;;;;;9.23;4.75;;;19.60;99.90;;;;;;5231453;28;20253;-58
2021/08/16 05:20:02;;;;;;;9.40;5.00;;;19.60;99.90;;;;;;5229708;28;20572;-61
2021/08/16 05:22:37;;;;;;;8.30;4.00;;;19.70;99.90;;;;;;5230862;28;20228;-62
2021/08/16 05:25:10;;;;;;;9.32;4.55;;;19.80;99.90;;;;;;5230247;28;20227;-62
2021/08/16 05:27:42;;;;;;;7.22;4.30;;;19.90;99.90;;;;;;5229608;28;20236;-61
2021/08/16 05:30:14;;;;;;;6.20;4.25;;;19.90;99.90;;;;;;5213267;28;20197;-62
2021/08/16 05:32:49;;;;;;;8.02;4.82;;;20.00;99.90;;;;;;5230397;28;20556;-61
2021/08/16 05:35:21;;;;;;;7.30;4.38;;;20.00;99.90;;;;;;5230620;28;20278;-62
2021/08/16 05:37:55;;;;;;;7.80;4.10;;;20.10;99.90;;;;;;5229335;28;20217;-61
2021/08/16 05:40:27;;;;;;;7.28;4.32;;;20.10;99.90;;;;;;5230404;28;20218;-66
2021/08/16 05:42:59;;;;;;;12.38;4.70;;;20.10;99.90;;;;;;5229759;28;20206;-61
2021/08/16 05:45:31;;;;;;;9.45;4.72;;;20.10;99.90;;;;;;5213188;28;20480;-62
2021/08/16 05:48:06;;;;;;;12.88;5.03;;;20.00;99.90;;;;;;5229960;28;20229;-63
2021/08/16 05:50:38;;;;;;;12.50;4.85;;;20.10;99.90;;;;;;5230192;28;20224;-61
2021/08/16 05:53:14;;;;;;;10.27;4.97;;;20.10;99.90;;;;;;5229940;28;20301;-63
2021/08/16 05:55:46;;;;;;;11.88;4.82;;;20.20;99.90;;;;;;5230344;28;20201;-61
2021/08/16 05:58:17;;;;;;;10.45;4.95;;;20.20;99.90;;;;;;5229153;28;20212;-62
2021/08/16 06:00:50;;;;;;;8.95;4.72;;;20.20;99.90;;;;;;5212728;28;20221;-58
2021/08/16 06:03:24;;;;;;;7.88;5.13;;;20.30;99.90;;;;;;5228897;28;20287;-61
2021/08/16 06:05:57;;;;;;;10.25;5.03;;;20.50;99.90;;;;;;5228631;28;20285;-62
2021/08/16 06:08:29;;;;;;;9.80;5.25;;;20.50;99.90;;;;;;5212523;28;20206;-58
2021/08/16 06:11:03;;;;;;;12.02;5.30;;;20.60;99.90;;;;;;5230242;28;20629;-52
2021/08/16 06:13:35;;;;;;;12.38;5.68;;;20.70;99.90;;;;;;5212575;28;20564;-62
2021/08/16 06:16:07;;;;;;;9.13;5.45;;;20.70;99.90;;;;;;5212058;28;20220;-61
2021/08/16 06:18:39;;;;;;;13.55;5.40;;;20.80;99.90;;;;;;5228724;28;20213;-63
2021/08/16 06:21:11;;;;;;;13.77;5.50;;;20.90;99.90;;;;;;5228449;28;20198;-62
2021/08/16 06:23:43;;;;;;;8.88;5.07;;;21.30;99.90;;;;;;5229399;28;20213;-61
2021/08/16 06:26:18;;;;;;;11.68;4.75;;;22.70;99.90;;;;;;5229565;28;20209;-59
2021/08/16 06:28:50;;;;;;;9.85;4.47;;;24.80;99.90;;;;;;5216519;28;20217;-62
2021/08/16 06:31:24;;;;;;;11.27;4.60;;;26.80;99.90;;;;;;5206566;28;20213;-60
2021/08/16 06:33:57;;;;;;;9.35;4.20;;;27.90;99.90;;;;;;5208467;28;20241;-59
2021/08/16 06:36:29;;;;;;;9.88;4.07;;;29.00;99.90;;;;;;5219703;28;20590;-62
2021/08/16 06:39:01;;;;;;;8.23;4.28;;;30.10;99.90;;;;;;5195620;28;20229;-58
2021/08/16 06:41:33;;;;;;;8.80;4.72;;;31.10;99.90;;;;;;5228047;28;20207;-62
2021/08/16 06:44:07;;;;;;;9.13;4.05;;;32.20;99.90;;;;;;5229237;28;20233;-63
2021/08/16 06:46:40;;;;;;;10.02;4.55;;;33.30;99.90;;;;;;5228981;28;20197;-61
2021/08/16 06:49:12;;;;;;;9.65;3.90;;;34.10;99.90;;;;;;5228093;28;20601;-61
2021/08/16 06:51:44;;;;;;;11.05;4.50;;;34.80;99.90;;;;;;5229221;28;20201;-60
2021/08/16 06:54:19;;;;;;;8.02;4.03;;;35.40;99.90;;;;;;5219187;28;20248;-61
2021/08/16 06:57:02;;;;;;;9.10;4.18;;;36.00;99.70;;;;;;5224367;28;20575;-61
2021/08/16 06:59:35;;;;;;;10.45;4.30;;;36.00;97.00;;;;;;5228578;28;20263;-62
2021/08/16 07:02:07;;;;;;;7.35;3.85;;;36.30;96.20;;;;;;5229060;28;20212;-61
2021/08/16 07:04:42;;;;;;;7.18;3.80;;;36.60;95.70;;;;;;5228907;28;20671;-62
2021/08/16 07:07:15;;;;;;;8.93;3.97;;;36.90;94.00;;;;;;5211789;28;20208;-60
2021/08/16 07:09:47;;;;;;;8.90;4.28;;;37.00;93.50;;;;;;5228497;28;20233;-61
2021/08/16 07:12:19;;;;;;;7.00;3.60;;;36.90;92.70;;;;;;5195306;28;20547;-61
2021/08/16 07:14:51;;;;;;;8.35;3.85;;;37.40;92.00;;;;;;5228728;28;20687;-56
2021/08/16 07:17:26;;;;;;;10.25;4.22;;;37.60;91.20;;;;;;5227682;28;20525;-55
2021/08/16 07:19:57;;;;;;;7.70;3.85;;;37.60;90.40;;;;;;5228621;28;20263;-56
2021/08/16 07:22:29;;;;;;;5.75;3.90;;;37.80;89.80;;;;;;5228728;28;20222;-59
2021/08/16 07:25:02;;;;;;;6.32;4.13;;;38.00;88.30;;;;;;5228595;28;20240;-50
2021/08/16 07:27:34;;;;;;;6.22;3.38;;;37.90;87.10;;;;;;5228904;28;20201;-57
2021/08/16 07:30:06;;;;;;;6.57;3.58;;;38.30;85.50;;;;;;5227349;28;20267;-54
2021/08/16 07:32:41;;;;;;;8.15;4.55;;;38.40;85.40;;;;;;5227710;28;20201;-57
2021/08/16 07:35:13;;;;;;;9.27;4.03;;;38.30;84.50;;;;;;5228327;28;20523;-62
2021/08/16 07:37:45;;;;;;;6.32;4.03;;;37.80;84.70;;;;;;5228770;28;20212;-55
2021/08/16 07:40:21;;;;;;;8.68;4.18;;;36.90;84.30;;;;;;5211628;28;20232;-56
2021/08/16 07:42:53;;;;;;;6.30;3.80;;;36.10;86.10;;;;;;5230838;28;20658;-56
2021/08/16 07:45:25;;;;;;;5.75;4.15;;;35.20;87.70;;;;;;5214943;28;20224;-57
2021/08/16 07:47:59;;;;;;;5.57;3.40;;;34.30;89.30;;;;;;5232643;28;20656;-46
2021/08/16 07:50:32;;;;;;;6.45;3.95;;;33.50;90.30;;;;;;5214524;28;20275;-46
2021/08/16 07:53:05;;;;;;;8.13;3.70;;;32.90;90.80;;;;;;5231338;28;20659;-50
2021/08/16 07:55:40;;;;;;;9.48;4.20;;;32.40;91.70;;;;;;5232025;28;20244;-50
2021/08/16 07:58:13;;;;;;;8.73;4.50;;;31.70;91.90;;;;;;5231256;28;20201;-52
2021/08/16 08:00:47;;;;;;;9.05;4.65;;;31.00;92.60;;;;;;5231682;28;20237;-49
2021/08/16 08:03:19;;;;;;;12.13;4.68;;;30.70;93.40;;;;;;5231166;28;20220;-46
2021/08/16 08:05:54;;;;;;;13.98;4.68;;;30.40;93.70;;;;;;5232063;28;20566;-53
2021/08/16 08:08:26;;;;;;;9.48;4.40;;;30.20;93.80;;;;;;5232352;28;20201;-51
2021/08/16 08:10:58;;;;;;;8.73;4.13;;;29.90;94.60;;;;;;5230853;28;20267;-64
2021/08/16 08:13:33;;;;;;;8.50;4.40;;;29.70;94.90;;;;;;5231288;28;20215;-62
2021/08/16 08:16:05;;;;;;;8.88;4.35;;;29.50;95.10;;;;;;5231530;28;20233;-62
2021/08/16 08:18:37;;;;;;;11.52;4.90;;;29.50;95.60;;;;;;5214252;28;20289;-61
2021/08/16 08:21:11;;;;;;;6.63;4.32;;;29.40;95.00;;;;;;5231037;28;20233;-63
2021/08/16 08:23:43;;;;;;;7.88;4.28;;;29.40;95.60;;;;;;5231655;28;20204;-64
2021/08/16 08:26:15;;;;;;;7.38;4.65;;;29.30;95.30;;;;;;5230975;28;20332;-61
2021/08/16 08:28:50;;;;;;;7.35;4.05;;;29.40;94.90;;;;;;5231642;28;20639;-62
2021/08/16 08:31:26;;;;;;;8.88;4.55;;;29.20;94.80;;;;;;5231606;28;20695;-61
2021/08/16 08:34:01;;;;;;;8.43;4.68;;;29.20;94.90;;;;;;5231842;28;20538;-62
2021/08/16 08:36:33;;;;;;;6.50;4.15;;;29.20;94.40;;;;;;5198405;28;20686;-62
2021/08/16 08:39:06;;;;;;;8.82;4.00;;;29.30;94.70;;;;;;5231325;28;20245;-61
2021/08/16 08:41:41;;;;;;;7.47;3.88;;;29.20;94.60;;;;;;5231852;28;20248;-61
2021/08/16 08:44:14;;;;;;;7.32;4.22;;;29.10;93.60;;;;;;5231691;28;20292;-62
2021/08/16 08:46:48;;;;;;;6.43;4.00;;;29.20;94.00;;;;;;5231462;28;20592;-61
2021/08/16 08:49:22;;;;;;;6.43;3.60;;;29.30;94.00;;;;;;5231858;28;20205;-62
2021/08/16 08:51:54;;;;;;;8.05;3.47;;;29.30;93.50;;;;;;5230442;28;20225;-62
2021/08/16 08:54:29;;;;;;;6.85;3.55;;;29.30;93.70;;;;;;5229359;28;20225;-63
2021/08/16 08:57:21;;;;;;;6.03;3.95;;;29.30;93.30;;;;;;5231715;28;20209;-63
2021/08/16 08:59:54;;;;;;;6.85;4.03;;;29.30;93.10;;;;;;5213832;28;20247;-60
2021/08/16 09:02:27;;;;;;;6.72;4.25;;;29.20;93.40;;;;;;5230359;28;20210;-62
2021/08/16 09:05:02;;;;;;;6.32;4.05;;;29.30;93.50;;;;;;5214127;28;20296;-62
2021/08/16 09:07:39;;;;;;;6.30;3.60;;;29.30;93.30;;;;;;5231072;28;20608;-64
2021/08/16 09:10:13;;;;;;;6.10;3.47;;;29.40;93.20;;;;;;5231150;28;20205;-60
2021/08/16 09:12:46;;;;;;;6.75;3.67;;;29.40;92.70;;;;;;5231136;28;20205;-64
2021/08/16 09:15:23;;;;;;;6.22;3.88;;;29.40;92.70;;;;;;5230939;28;20225;-61
2021/08/16 09:18:01;;;;;;;7.95;3.50;;;29.20;92.60;;;;;;5229969;28;20207;-62
2021/08/16 09:20:36;;;;;;;6.03;3.53;;;29.30;92.90;;;;;;5230563;28;20692;-63
2021/08/16 09:23:16;;;;;;;6.53;3.53;;;29.10;92.40;;;;;;5213914;28;20205;-61
2021/08/16 09:25:56;;;;;;;7.85;3.53;;;29.10;92.20;;;;;;5230516;28;20201;-61
2021/08/16 09:28:31;;;;;;;10.13;3.60;;;29.20;92.30;;;;;;5229494;28;20213;-62
2021/08/16 09:31:17;;;;;;;5.20;3.35;;;29.30;91.90;;;;;;5229533;28;20569;-63
2021/08/16 09:33:55;;;;;;;8.10;3.45;;;29.00;91.70;;;;;;5230754;28;20235;-61
2021/08/16 09:36:35;;;;;;;7.22;3.22;;;28.90;90.90;;;;;;5229537;28;20290;-63
2021/08/16 09:39:20;;;;;;;4.78;3.10;;;28.70;90.90;;;;;;5230581;28;20201;-61
2021/08/16 09:42:00;;;;;;;8.52;3.53;;;28.70;91.00;;;;;;5230520;28;20251;-62
2021/08/16 09:44:44;;;;;;;6.47;3.53;;;28.50;90.70;;;;;;5230867;28;20262;-61
2021/08/16 09:47:17;;;;;;;7.25;3.10;;;28.50;91.10;;;;;;5230099;28;20244;-61
2021/08/16 09:49:57;;;;;;;6.32;3.28;;;28.50;91.60;;;;;;5230191;28;20205;-61
2021/08/16 09:52:32;;;;;;;6.07;3.15;;;28.60;91.70;;;;;;5230951;28;20231;-61
2021/08/16 09:55:05;;;;;;;6.63;3.17;;;28.80;91.70;;;;;;5229943;28;20232;-63
2021/08/16 09:57:42;;;;;;;7.13;2.92;;;28.80;91.70;;;;;;5229480;28;20583;-61
2021/08/16 10:00:14;;;;;;;5.32;2.85;;;28.70;90.00;;;;;;5228814;28;20237;-63
2021/08/16 10:02:47;;;;;;;6.80;3.20;;;28.70;89.70;;;;;;5212737;28;20213;-62
2021/08/16 10:05:20;;;;;;;6.50;2.70;;;28.70;90.60;;;;;;5212574;28;20205;-61
2021/08/16 10:07:57;;;;;;;4.05;2.42;;;28.60;90.20;;;;;;5229856;28;20233;-63
2021/08/16 10:10:29;;;;;;;6.28;2.40;;;28.50;89.30;;;;;;5230003;28;20235;-62
2021/08/16 10:13:05;;;;;;;6.22;3.03;;;28.50;90.00;;;;;;5229388;28;20225;-61
2021/08/16 10:15:51;;;;;;;6.32;2.60;;;28.40;88.60;;;;;;5228919;28;20279;-63
2021/08/16 10:18:33;;;;;;;8.35;2.67;;;28.40;87.80;;;;;;5228560;28;20562;-63
2021/08/16 10:21:06;;;;;;;9.60;2.58;;;28.40;86.30;;;;;;5228964;28;20202;-62
2021/08/16 10:23:47;;;;;;;3.58;2.40;;;28.40;87.10;;;;;;5228880;28;20216;-62
2021/08/16 10:26:30;;;;;;;6.32;3.38;;;28.40;87.80;;;;;;5229908;28;20198;-61
2021/08/16 10:29:05;;;;;;;5.30;2.38;;;28.40;87.60;;;;;;5229738;28;20233;-62
2021/08/16 10:31:41;;;;;;;8.68;2.72;;;28.30;87.50;;;;;;5230086;28;20212;-63
2021/08/16 10:34:27;;;;;;;10.63;2.92;;;28.40;86.70;;;;;;5229621;28;20296;-63
2021/08/16 10:37:01;;;;;;;7.07;2.60;;;28.40;88.00;;;;;;5229286;28;20230;-67
2021/08/16 10:39:35;;;;;;;3.47;2.38;;;28.60;87.00;;;;;;5229636;28;20201;-62
2021/08/16 10:42:13;;;;;;;6.88;2.75;;;28.70;86.40;;;;;;5228455;28;20240;-61
2021/08/16 10:44:46;;;;;;;4.75;2.05;;;28.90;85.60;;;;;;5228965;28;20205;-62
2021/08/16 10:47:30;;;;;;;6.70;2.20;;;28.90;84.50;;;;;;5228981;28;20240;-63
2021/08/16 10:50:08;;;;;;;3.47;2.00;;;28.70;83.70;;;;;;5229057;28;20527;-62
2021/08/16 10:52:43;;;;;;;7.28;2.33;;;28.50;83.80;;;;;;5228194;28;20230;-62
2021/08/16 10:55:23;;;;;;;3.90;2.30;;;28.50;85.40;;;;;;5228939;28;20233;-61
2021/08/16 10:57:56;;;;;;;4.72;2.20;;;28.50;85.60;;;;;;5228126;28;20228;-62
2021/08/16 11:00:31;;;;;;;5.40;2.53;;;28.50;86.70;;;;;;5228719;28;20229;-62
2021/08/16 11:03:04;;;;;;;5.75;2.45;;;28.50;87.00;;;;;;5227875;28;20228;-62
2021/08/16 11:05:42;;;;;;;9.20;2.72;;;28.70;88.40;;;;;;5228010;28;20641;-64
2021/08/16 11:08:14;;;;;;;6.82;3.28;;;28.60;88.70;;;;;;5229015;28;20237;-63
2021/08/16 11:10:49;;;;;;;4.78;2.75;;;28.70;89.10;;;;;;5228548;28;20209;-62
2021/08/16 11:13:22;;;;;;;9.05;3.22;;;28.70;89.70;;;;;;5228855;28;20243;-61
2021/08/16 11:16:08;;;;;;;7.65;3.05;;;28.80;89.70;;;;;;5227300;28;20297;-61
2021/08/16 11:18:52;;;;;;;6.55;3.13;;;28.90;89.70;;;;;;5228703;28;20229;-61
2021/08/16 11:21:26;;;;;;;8.02;3.05;;;28.80;89.80;;;;;;5228973;28;20633;-62
2021/08/16 11:24:02;;;;;;;8.20;2.50;;;28.80;90.00;;;;;;5228427;28;20229;-61
2021/08/16 11:26:47;;;;;;;6.18;2.88;;;28.90;90.10;;;;;;5228676;28;20208;-61
2021/08/16 11:29:24;;;;;;;11.23;2.80;;;28.90;89.80;;;;;;5229206;28;20186;-64
2021/08/16 11:31:59;;;;;;;6.25;2.63;;;29.10;89.20;;;;;;5228654;28;20197;-61
2021/08/16 11:34:54;;;;;;;7.03;3.20;;;29.30;88.40;;;;;;5227723;28;20229;-63
2021/08/16 11:37:29;;;;;;;10.07;2.60;;;29.10;87.90;;;;;;5228833;28;20186;-63
2021/08/16 11:40:02;;;;;;;8.55;2.78;;;28.90;87.10;;;;;;5228754;28;20198;-61
2021/08/16 11:42:57;;;;;;;5.95;2.55;;;28.80;87.50;;;;;;5228551;28;20309;-61
2021/08/16 11:45:36;;;;;;;6.13;2.92;;;28.70;88.20;;;;;;5227836;28;20212;-61
2021/08/16 11:48:08;;;;;;;6.45;2.40;;;28.60;87.50;;;;;;5227446;28;20229;-63
2021/08/16 11:50:40;;;;;;;4.38;2.22;;;28.50;86.40;;;;;;5228597;28;20621;-61
2021/08/16 11:53:12;;;;;;;4.85;2.35;;;28.50;86.60;;;;;;5227608;28;20714;-61
2021/08/16 11:55:44;;;;;;;4.47;2.20;;;28.60;84.90;;;;;;5227443;28;20560;-62
2021/08/16 11:58:16;;;;;;;5.60;2.40;;;28.70;85.60;;;;;;5228645;28;20541;-61
2021/08/16 12:00:51;;;;;;;4.85;2.40;;;28.90;86.10;;;;;;5228050;28;20727;-65
2021/08/16 12:03:24;;;;;;;4.40;2.38;;;29.00;85.50;;;;;;5228269;28;20623;-61
2021/08/16 12:05:57;;;;;;;6.75;2.45;;;29.10;85.20;;;;;;5227091;28;20213;-61
2021/08/16 12:08:29;;;;;;;6.63;2.55;;;29.30;85.00;;;;;;5210833;28;20221;-61
2021/08/16 12:11:10;;;;;;;3.63;2.38;;;29.40;84.00;;;;;;5228303;28;20218;-62
2021/08/16 12:13:45;;;;;;;6.45;2.33;;;29.40;83.40;;;;;;5228545;28;20229;-62
2021/08/16 12:16:28;;;;;;;4.72;2.20;;;29.40;83.00;;;;;;5228201;28;20672;-62
2021/08/16 12:19:01;;;;;;;4.80;2.38;;;29.30;82.40;;;;;;5227033;28;20263;-61
2021/08/16 12:21:33;;;;;;;5.32;2.13;;;29.30;82.60;;;;;;5228123;28;20205;-66
2021/08/16 12:24:09;;;;;;;5.88;2.70;;;29.20;82.70;;;;;;5227059;28;20231;-62
2021/08/16 12:26:41;;;;;;;4.32;2.38;;;29.20;83.30;;;;;;5211039;28;20209;-62
2021/08/16 12:29:22;;;;;;;6.68;2.58;;;29.30;83.60;;;;;;5214275;28;20237;-62
2021/08/16 12:31:55;;;;;;;6.10;2.55;;;29.30;83.20;;;;;;5232410;28;20209;-63
2021/08/16 12:34:33;;;;;;;5.72;2.40;;;29.20;83.30;;;;;;5231547;28;20580;-62
2021/08/16 12:37:20;;;;;;;3.28;2.42;;;29.40;84.00;;;;;;5231811;28;20561;-61
2021/08/16 12:39:52;;;;;;;5.32;2.40;;;29.40;84.10;;;;;;5230601;28;20646;-65
2021/08/16 12:42:30;;;;;;;5.60;2.80;;;29.40;83.20;;;;;;5231441;28;20212;-62
2021/08/16 12:45:02;;;;;;;3.30;2.45;;;29.10;83.10;;;;;;5231333;28;20261;-62
2021/08/16 12:47:37;;;;;;;6.53;2.78;;;28.90;83.90;;;;;;5231629;28;20556;-63
2021/08/16 12:50:11;;;;;;;9.68;4.00;;;28.50;85.20;;;;;;5231517;28;20205;-62
2021/08/16 12:52:43;;;;;;;8.43;3.03;;;27.60;94.80;;;;;;5231615;28;20552;-61
2021/08/16 12:55:15;;;;;;;5.25;2.75;;;26.20;97.50;;;;;;5230328;28;20225;-64
2021/08/16 12:57:47;;;;;;;7.28;3.25;;;24.80;99.90;;;;;;5230529;28;20211;-64
2021/08/16 13:00:23;;;;;;;7.45;3.05;;;23.60;99.90;;;;;;5230148;28;20225;-61
2021/08/16 13:02:55;;;;;;;7.80;3.42;;;22.90;99.90;;;;;;5231179;28;20232;-63
2021/08/16 13:05:27;;;;;;;7.05;3.38;;;22.30;99.90;;;;;;5231689;28;20205;-62
2021/08/16 13:08:00;;;;;;;5.88;3.42;;;22.00;99.90;;;;;;5231743;28;20540;-64
2021/08/16 13:10:36;;;;;;;6.63;3.80;;;21.90;99.90;;;;;;5230437;28;20213;-62
2021/08/16 13:13:09;;;;;;;5.22;3.40;;;21.90;99.90;;;;;;5231271;28;20601;-63
2021/08/16 13:15:41;;;;;;;5.63;3.45;;;22.00;99.90;;;;;;5231264;28;20546;-62
2021/08/16 13:18:13;;;;;;;8.77;3.63;;;22.00;99.90;;;;;;5213650;28;20327;-67
2021/08/16 13:20:45;;;;;;;4.20;3.28;;;22.00;99.90;;;;;;5231414;28;20213;-61